Cleora, Oklahoma
Current Conditions -  °F | °C
As of 1:15 PM on Thursday 23 Oct 2014 (Local Time) from KGMJ Reporting Station
Haze Haze  
Wind Chill: 55°   Ceiling: 4700
Heat Index: 55°   Visibility: 5mi
Dew Point: 55°   Wind: 5mph
Humidity: 100%   Direction: 160°SSE
Pressure: 30.18"   Gusts: NA
Location:  36.651°N, 94.9303°W
Report Text: KGMJ 231815Z AUTO 16004KT 5SM BR SCT039 OVC047 13/13 A3018 RMK AO2
Loading
Personal Weather Stations






























Interactive Weather Map
Tropical Storm Tracking
New forecast layout! Learn more

10-Day Weather Forecast

Advertisements
Track Severe Weather on mobile